Terminal Aerodrome Forecast
Issued by NWS Blacksburg, VA

Current Version | Previous Version | Text Only | Print | Product List | Glossary Off
Versions: 1 2 3 4 5 6 7 8 9 10 11 12 13 14 15 16 17 18 19 20 21 22 23 24 25 26 27 28 29 30 31 32 33 34 35 36 37

000
FTUS41 KRNK 190520
TAFBLF
TAF
KBLF 190520Z 1906/2006 29006KT P6SM SCT015 BKN050
     FM190700 30006KT P6SM OVC015
      TEMPO 1913/1915 BKN009
     FM191600 31005KT P6SM SCT018=

USA.gov is the U.S. government's official web portal to all federal, state and local government web resources and services.